Time;durP1;ratioP1;P1;durP2;ratioP2;P2;SDS_P1;SDS_P2;PMS_P1;PMS_P2;Temp;Humidity;BMP_temperature;BMP_pressure;BME280_temperature;BME280_humidity;BME280_pressure;Samples;Min_cycle;Max_cycle;Signal;HPM_P1;HPM_P2
2023/10/20 00:01:55;;;;;;;31.70;23.83;;;11.50;99.90;;;11.13;100.00;95394.00;5001469;28;20464;-80
2023/10/20 00:04:24;;;;;;;28.10;24.27;;;11.50;99.90;;;11.15;100.00;95397.25;5003728;28;20476;-80
2023/10/20 00:06:51;;;;;;;31.67;26.30;;;11.50;99.90;;;11.10;100.00;95390.00;5004144;28;20454;-80
2023/10/20 00:09:18;;;;;;;28.80;25.10;;;11.50;99.90;;;11.07;100.00;95390.56;5002735;28;20457;-79
2023/10/20 00:11:45;;;;;;;30.03;25.53;;;11.50;99.90;;;11.07;100.00;95368.13;5003884;28;20465;-79
2023/10/20 00:14:14;;;;;;;31.90;26.10;;;11.50;99.90;;;10.98;100.00;95357.94;4983807;28;20463;-79
2023/10/20 00:16:41;;;;;;;29.53;24.33;;;11.40;99.90;;;10.97;100.00;95355.53;5002024;28;20452;-79
2023/10/20 00:19:08;;;;;;;31.80;26.03;;;11.40;99.90;;;10.92;100.00;95348.25;5002400;28;20927;-78
2023/10/20 00:21:36;;;;;;;32.77;24.90;;;11.40;99.90;;;10.90;100.00;95339.66;4985835;28;20452;-79
2023/10/20 00:24:03;;;;;;;29.93;24.80;;;11.40;99.90;;;10.92;100.00;95353.66;5003386;28;20577;-78
2023/10/20 00:26:31;;;;;;;32.07;24.90;;;11.30;99.90;;;10.89;100.00;95344.22;5002282;28;20529;-78
2023/10/20 00:28:58;;;;;;;26.80;23.60;;;11.30;99.90;;;10.87;100.00;95326.72;5003860;28;20463;-79
2023/10/20 00:31:29;;;;;;;28.77;24.80;;;11.30;99.90;;;10.83;100.00;95352.66;5006455;28;20909;-80
2023/10/20 00:33:56;;;;;;;25.57;22.83;;;11.20;99.90;;;10.79;100.00;95352.44;5002486;28;20489;-80
2023/10/20 00:36:23;;;;;;;29.60;25.00;;;11.10;99.90;;;10.83;100.00;95347.25;4996994;28;20868;-79
2023/10/20 00:38:50;;;;;;;27.73;23.90;;;11.10;99.90;;;10.74;100.00;95342.47;4987833;28;20446;-79
2023/10/20 00:41:18;;;;;;;27.80;24.43;;;11.00;99.90;;;10.73;100.00;95332.75;5000012;28;20463;-79
2023/10/20 00:43:45;;;;;;;27.83;24.13;;;11.00;99.90;;;10.77;100.00;95324.91;4998168;28;20942;-79
2023/10/20 00:46:13;;;;;;;29.00;23.77;;;11.00;99.90;;;10.67;100.00;95323.06;4999989;28;20467;-79
2023/10/20 00:48:42;;;;;;;28.03;23.77;;;11.00;99.90;;;10.86;100.00;95314.28;4999029;28;20516;-78
2023/10/20 00:51:09;;;;;;;31.03;24.67;;;11.10;99.90;;;10.82;100.00;95291.63;4980588;28;20483;-79
2023/10/20 00:53:38;;;;;;;28.67;23.53;;;11.20;99.90;;;10.85;100.00;95297.28;5003644;28;20890;-78
2023/10/20 00:56:06;;;;;;;26.50;23.57;;;11.20;99.90;;;10.57;100.00;95288.84;5005525;28;20496;-77
2023/10/20 00:58:34;;;;;;;29.77;23.40;;;11.10;99.90;;;10.82;100.00;95314.06;5009009;28;20811;-79
2023/10/20 01:01:03;;;;;;;26.93;24.00;;;11.10;99.90;;;10.69;100.00;95307.41;5007227;28;20471;-80
2023/10/20 01:03:32;;;;;;;26.40;22.77;;;11.10;99.90;;;10.65;100.00;95314.44;4989863;28;20853;-79
2023/10/20 01:06:02;;;;;;;28.47;24.83;;;11.00;99.90;;;10.63;100.00;95311.22;4987928;28;21034;-80
2023/10/20 01:08:30;;;;;;;30.80;24.47;;;11.00;99.90;;;10.67;100.00;95316.88;5007805;28;20471;-79
2023/10/20 01:10:57;;;;;;;28.60;24.13;;;11.00;99.90;;;10.70;100.00;95306.31;5004275;28;20453;-78
2023/10/20 01:13:25;;;;;;;30.27;23.57;;;11.00;99.90;;;10.68;100.00;95307.69;4990218;28;20472;-78
2023/10/20 01:15:53;;;;;;;28.33;24.10;;;11.00;99.90;;;10.72;100.00;95304.13;5001824;28;20956;-78
2023/10/20 01:18:20;;;;;;;28.10;25.10;;;11.00;99.90;;;10.67;100.00;95301.47;5005896;28;20457;-78
2023/10/20 01:20:47;;;;;;;27.73;24.47;;;11.00;99.90;;;10.65;100.00;95300.94;4988880;28;20456;-78
2023/10/20 01:23:16;;;;;;;26.10;23.23;;;11.00;99.90;;;10.34;100.00;95249.88;4990273;28;20928;-78
2023/10/20 01:25:45;;;;;;;29.10;24.37;;;11.00;99.90;;;10.70;100.00;95295.53;5007351;28;20843;-80
2023/10/20 01:28:12;;;;;;;28.20;23.50;;;11.00;99.90;;;10.58;100.00;95303.97;4987689;28;20867;-79
2023/10/20 01:30:39;;;;;;;33.13;23.27;;;10.90;99.90;;;10.67;100.00;95303.38;5009504;28;20452;-81
2023/10/20 01:33:06;;;;;;;26.07;23.33;;;11.00;99.90;;;10.56;100.00;95305.34;5007146;28;20468;-80
2023/10/20 01:35:34;;;;;;;33.00;24.30;;;10.80;99.90;;;10.56;100.00;95294.56;5007118;28;20512;-80
2023/10/20 01:38:03;;;;;;;26.23;23.33;;;10.90;99.90;;;10.68;100.00;95297.66;5006640;28;20932;-80
2023/10/20 01:40:30;;;;;;;27.67;24.17;;;10.90;99.90;;;10.90;100.00;95289.09;4985065;28;20507;-80
2023/10/20 01:42:59;;;;;;;30.47;25.60;;;11.10;99.90;;;10.94;100.00;95281.25;4987339;28;20530;-80
2023/10/20 01:45:27;;;;;;;26.13;22.80;;;11.20;99.90;;;10.84;100.00;95284.84;5001135;28;20491;-80
2023/10/20 01:47:54;;;;;;;28.23;24.03;;;11.20;99.90;;;10.77;100.00;95271.69;4993863;28;20447;-80
2023/10/20 01:50:21;;;;;;;29.37;23.13;;;11.20;99.90;;;10.33;100.00;95180.78;5001720;28;20479;-80
2023/10/20 01:52:49;;;;;;;27.10;23.80;;;11.20;99.90;;;10.58;100.00;95195.19;5001267;28;20474;-80
2023/10/20 01:55:16;;;;;;;30.00;24.67;;;11.30;99.90;;;10.93;100.00;95254.53;5005265;28;20790;-80
2023/10/20 01:57:43;;;;;;;28.03;24.03;;;11.30;99.90;;;10.93;100.00;95258.03;4989846;28;20439;-80
2023/10/20 02:00:14;;;;;;;28.57;23.60;;;11.30;99.90;;;10.94;100.00;95251.53;5006122;28;20499;-80
2023/10/20 02:02:41;;;;;;;26.87;23.93;;;11.30;99.80;;;10.93;100.00;95251.84;5001327;28;20506;-81
2023/10/20 02:05:09;;;;;;;28.10;24.07;;;11.30;99.20;;;10.82;100.00;95248.41;4995269;28;20957;-80
2023/10/20 02:07:37;;;;;;;29.40;26.17;;;11.30;98.70;;;10.94;100.00;95248.84;4995084;28;20554;-79
2023/10/20 02:10:06;;;;;;;26.50;22.20;;;11.40;98.10;;;10.96;100.00;95237.75;5004173;28;20518;-79
2023/10/20 02:12:34;;;;;;;27.27;23.27;;;11.40;97.90;;;10.77;100.00;95201.47;4987717;28;20445;-79
2023/10/20 02:15:01;;;;;;;27.90;24.07;;;11.40;97.70;;;11.07;100.00;95233.03;5003263;28;20480;-80
2023/10/20 02:17:30;;;;;;;27.10;23.53;;;11.40;97.90;;;10.90;100.00;95223.50;5002834;28;20453;-80
2023/10/20 02:19:57;;;;;;;28.17;23.80;;;11.40;97.90;;;11.02;100.00;95223.09;4997447;28;20467;-80
2023/10/20 02:22:25;;;;;;;27.17;23.50;;;11.40;98.30;;;11.02;100.00;95226.63;5002971;28;20451;-79
2023/10/20 02:24:53;;;;;;;25.20;22.50;;;11.40;97.60;;;11.02;100.00;95225.78;4988177;28;20814;-78
2023/10/20 02:27:20;;;;;;;29.27;24.30;;;11.40;97.90;;;11.05;100.00;95209.81;4988150;28;20452;-79
2023/10/20 02:29:47;;;;;;;27.20;23.20;;;11.40;97.80;;;10.93;100.00;95201.31;5008240;28;20548;-79
2023/10/20 02:32:15;;;;;;;26.97;23.93;;;11.40;97.50;;;11.01;100.00;95213.38;4991701;28;20541;-80
2023/10/20 02:34:44;;;;;;;27.70;23.77;;;11.40;97.20;;;10.95;100.00;95215.31;4998908;28;20518;-78
2023/10/20 02:37:12;;;;;;;24.87;22.20;;;11.30;97.90;;;11.01;100.00;95208.78;5002858;28;20951;-78
2023/10/20 02:39:39;;;;;;;30.53;23.27;;;11.30;97.60;;;10.97;100.00;95201.53;5005151;28;20465;-80
2023/10/20 02:42:07;;;;;;;26.57;23.77;;;11.30;97.50;;;10.99;100.00;95197.44;4999760;28;20444;-79
2023/10/20 02:44:34;;;;;;;27.30;22.57;;;11.30;98.00;;;10.92;100.00;95194.28;4997382;28;20458;-79
2023/10/20 02:47:01;;;;;;;29.80;23.80;;;11.30;98.40;;;10.84;100.00;95203.00;4995815;28;20563;-79
2023/10/20 02:49:28;;;;;;;29.20;23.00;;;11.20;98.80;;;10.92;100.00;95199.69;5001871;28;20483;-78
2023/10/20 02:51:57;;;;;;;25.00;22.30;;;11.20;99.80;;;10.75;100.00;95189.31;4994422;28;20505;-78
2023/10/20 02:54:24;;;;;;;28.80;24.23;;;11.20;99.40;;;10.77;100.00;95193.38;4991172;28;21028;-78
2023/10/20 02:56:51;;;;;;;29.07;23.83;;;11.10;99.50;;;10.65;100.00;95192.94;4989670;28;20455;-79
2023/10/20 02:59:18;;;;;;;28.90;24.30;;;11.00;99.60;;;10.64;100.00;95183.22;4986292;28;20456;-78
2023/10/20 03:01:46;;;;;;;28.87;24.80;;;11.00;99.90;;;10.77;100.00;95174.47;4988904;28;20509;-78
2023/10/20 03:04:14;;;;;;;30.27;25.23;;;11.00;99.90;;;10.91;100.00;95165.69;5006572;28;20465;-78
2023/10/20 03:06:42;;;;;;;32.27;25.53;;;11.20;99.90;;;10.88;100.00;95160.84;5003720;28;20465;-79
2023/10/20 03:09:13;;;;;;;28.07;24.83;;;11.20;98.90;;;10.79;100.00;95147.19;5002598;28;20450;-78
2023/10/20 03:11:40;;;;;;;28.90;24.90;;;11.20;98.30;;;10.80;100.00;95153.38;4999223;28;20466;-80
2023/10/20 03:14:08;;;;;;;29.87;25.87;;;11.20;98.70;;;10.84;100.00;95151.69;5005998;28;20531;-79
2023/10/20 03:16:42;;;;;;;28.30;25.00;;;11.20;98.80;;;10.79;100.00;95151.75;5001460;28;20479;-79
2023/10/20 03:19:11;;;;;;;29.40;26.17;;;11.10;98.80;;;10.84;100.00;95125.50;5001054;28;20452;-78
2023/10/20 03:21:39;;;;;;;29.70;25.23;;;11.20;99.60;;;10.67;100.00;95100.88;5004340;28;20932;-78
2023/10/20 03:24:07;;;;;;;29.00;25.40;;;11.20;99.40;;;10.83;100.00;95125.78;5003203;28;20532;-78
2023/10/20 03:26:37;;;;;;;28.03;24.87;;;11.10;99.90;;;10.78;100.00;95094.25;4986135;28;20457;-78
2023/10/20 03:29:04;;;;;;;33.77;25.80;;;11.20;99.70;;;10.79;100.00;95101.28;4993974;28;21012;-78
2023/10/20 03:31:32;;;;;;;30.53;24.90;;;11.10;99.10;;;10.83;100.00;95099.59;4988607;28;20450;-78
2023/10/20 03:33:59;;;;;;;29.23;25.20;;;11.20;99.30;;;10.38;100.00;95034.22;5006839;28;20557;-79
2023/10/20 03:36:28;;;;;;;29.10;25.70;;;11.20;98.30;;;10.72;100.00;95081.91;4987488;28;20940;-79
2023/10/20 03:38:56;;;;;;;32.87;25.57;;;11.20;97.90;;;10.74;100.00;95072.44;5004476;28;20456;-78
2023/10/20 03:41:25;;;;;;;29.27;26.00;;;11.20;97.80;;;10.58;100.00;95057.50;4986133;28;20449;-79
2023/10/20 03:43:53;;;;;;;29.30;25.07;;;11.10;97.60;;;10.62;100.00;95055.81;4983839;28;20495;-78
2023/10/20 03:46:20;;;;;;;30.43;24.90;;;11.10;97.50;;;10.63;100.00;95038.53;4987512;28;20440;-79
2023/10/20 03:48:48;;;;;;;27.40;24.47;;;11.10;97.70;;;10.65;100.00;95030.94;4999979;28;20453;-80
2023/10/20 03:51:16;;;;;;;32.27;24.43;;;11.20;97.70;;;10.74;100.00;95026.53;4999505;28;20454;-79
2023/10/20 03:53:50;;;;;;;30.57;25.77;;;11.20;97.80;;;10.72;100.00;95028.72;5004503;28;20540;-80
2023/10/20 03:56:22;;;;;;;29.47;24.47;;;11.20;98.00;;;10.70;100.00;95024.69;5005230;28;20461;-79
2023/10/20 03:58:49;;;;;;;29.47;24.13;;;11.20;98.10;;;10.71;100.00;95021.69;4999992;28;20496;-80
2023/10/20 04:01:18;;;;;;;29.47;24.50;;;11.20;98.00;;;10.77;100.00;95034.03;5003367;28;20453;-79
2023/10/20 04:03:49;;;;;;;31.80;24.07;;;11.20;98.20;;;10.79;100.00;95039.16;4985047;28;20519;-78
2023/10/20 04:06:16;;;;;;;30.23;24.83;;;11.20;99.20;;;10.90;100.00;95056.81;5002370;28;20513;-79
2023/10/20 04:08:44;;;;;;;29.20;26.10;;;11.20;99.00;;;10.78;100.00;95061.84;4987084;28;20462;-80
2023/10/20 04:11:12;;;;;;;29.67;26.40;;;11.20;99.00;;;10.73;100.00;95062.72;4999856;28;20471;-79
2023/10/20 04:13:39;;;;;;;29.00;25.90;;;11.20;99.70;;;10.81;100.00;95069.38;5004180;28;20485;-77
2023/10/20 04:16:12;;;;;;;31.47;26.20;;;11.20;99.90;;;10.86;100.00;95063.13;4998373;28;20461;-78
2023/10/20 04:18:41;;;;;;;30.90;25.80;;;11.20;99.90;;;10.81;100.00;95053.16;4982014;28;20456;-78
2023/10/20 04:21:10;;;;;;;32.03;25.90;;;11.20;99.90;;;10.76;100.00;95039.72;5002755;28;20779;-79
2023/10/20 04:23:38;;;;;;;27.93;24.00;;;11.20;99.90;;;10.80;100.00;95018.34;5006940;28;20444;-78
2023/10/20 04:26:15;;;;;;;30.80;27.23;;;11.20;99.90;;;10.71;100.00;95019.00;4998182;28;20483;-78
2023/10/20 04:28:44;;;;;;;29.80;26.17;;;11.20;99.70;;;10.65;100.00;95011.25;5005585;28;20455;-78
2023/10/20 04:48:19;;;;;;;32.40;27.90;;;11.20;99.90;;;10.80;100.00;94970.56;5003319;28;21015;-78
2023/10/20 04:51:09;;;;;;;29.30;26.10;;;11.30;99.90;;;10.82;100.00;94970.25;5005847;28;20526;-81
2023/10/20 04:53:54;;;;;;;33.70;27.40;;;11.20;99.90;;;10.85;100.00;94969.69;5011366;28;20477;-79
2023/10/20 04:56:34;;;;;;;32.13;27.63;;;11.20;99.90;;;10.84;100.00;94959.94;5003963;28;20500;-81
2023/10/20 04:59:05;;;;;;;32.83;26.77;;;11.20;99.90;;;10.65;100.00;94944.53;4999964;28;20734;-75
2023/10/20 05:01:44;;;;;;;31.80;26.63;;;11.20;99.90;;;10.59;100.00;94924.91;5001571;28;20490;-78
2023/10/20 05:04:19;;;;;;;30.80;27.50;;;11.20;99.90;;;10.93;100.00;94941.22;4999615;28;20513;-77
2023/10/20 05:06:57;;;;;;;29.20;26.10;;;11.30;99.90;;;10.81;100.00;94937.03;5004747;28;20453;-80
2023/10/20 05:09:26;;;;;;;35.00;27.47;;;11.20;99.90;;;10.70;100.00;94928.28;5004478;28;20453;-78
2023/10/20 05:11:53;;;;;;;33.60;28.30;;;11.20;99.90;;;10.58;100.00;94903.63;4999072;28;20938;-78
2023/10/20 05:14:21;;;;;;;31.13;25.83;;;11.20;99.90;;;10.19;100.00;94854.97;5004162;28;20492;-73
2023/10/20 05:16:48;;;;;;;33.47;28.03;;;11.10;99.90;;;10.56;100.00;94908.50;5004536;28;20513;-77
2023/10/20 05:19:16;;;;;;;33.00;28.03;;;11.10;99.90;;;10.68;100.00;94919.66;5005524;28;20829;-82
2023/10/20 05:21:43;;;;;;;35.13;28.60;;;11.10;99.90;;;10.82;100.00;94913.53;5004961;28;20448;-81
2023/10/20 05:24:11;;;;;;;33.43;27.17;;;11.20;99.90;;;10.74;100.00;94910.41;5006388;28;20549;-81
2023/10/20 05:26:39;;;;;;;32.27;27.43;;;11.20;99.90;;;10.79;100.00;94917.63;5000417;28;20453;-81
2023/10/20 05:29:07;;;;;;;33.70;25.77;;;11.20;99.90;;;10.91;100.00;94903.69;5005553;28;20927;-78
2023/10/20 05:31:35;;;;;;;32.37;27.60;;;11.20;99.90;;;10.56;100.00;94851.84;4999358;28;20542;-80
2023/10/20 05:34:03;;;;;;;34.23;28.27;;;11.30;99.90;;;10.90;100.00;94910.19;5007965;28;20579;-80
2023/10/20 05:36:30;;;;;;;31.57;26.80;;;11.30;99.90;;;10.78;100.00;94883.63;4988810;28;20774;-82
2023/10/20 05:38:57;;;;;;;32.47;26.30;;;11.30;99.90;;;10.79;100.00;94893.34;4986122;28;20456;-77
2023/10/20 05:41:29;;;;;;;36.57;27.73;;;11.20;99.90;;;10.77;100.00;94880.13;4987222;28;20650;-80
2023/10/20 05:43:56;;;;;;;30.40;25.80;;;11.20;99.90;;;10.90;100.00;94883.16;5007544;28;20816;-81
2023/10/20 05:46:24;;;;;;;33.40;26.23;;;11.20;99.90;;;10.93;100.00;94881.78;5001513;28;20548;-81
2023/10/20 05:48:51;;;;;;;31.77;27.10;;;11.30;99.90;;;10.97;100.00;94875.47;5005318;28;20508;-82
2023/10/20 05:51:18;;;;;;;34.03;27.43;;;11.30;99.90;;;10.87;100.00;94878.34;5001313;28;20533;-84
2023/10/20 05:53:45;;;;;;;36.93;27.43;;;11.30;99.90;;;10.79;100.00;94865.50;5003443;28;20483;-80
2023/10/20 05:56:13;;;;;;;35.30;27.73;;;11.30;99.90;;;10.79;100.00;94860.94;5018205;28;20484;-83
2023/10/20 05:58:42;;;;;;;32.23;26.37;;;11.20;99.90;;;10.74;100.00;94859.09;5014937;28;20448;-82
2023/10/20 06:01:10;;;;;;;30.00;26.60;;;11.20;99.90;;;10.73;100.00;94852.09;5004598;28;20456;-80
2023/10/20 06:03:37;;;;;;;34.03;28.00;;;11.20;99.90;;;10.69;100.00;94840.28;5004968;28;22995;-79
2023/10/20 06:06:05;;;;;;;32.20;25.50;;;11.20;99.90;;;10.71;100.00;94838.09;5003108;28;20458;-82
2023/10/20 06:08:33;;;;;;;30.77;25.63;;;11.20;99.90;;;10.67;100.00;94837.06;4985004;28;20477;-78
2023/10/20 06:11:03;;;;;;;33.40;26.83;;;11.20;99.90;;;10.71;100.00;94831.88;5000708;28;20459;-81
2023/10/20 06:13:32;;;;;;;32.77;27.30;;;11.20;99.90;;;10.63;100.00;94819.84;5003961;28;20946;-82
2023/10/20 06:16:08;;;;;;;30.37;26.03;;;11.20;99.90;;;10.69;100.00;94834.91;5005552;28;20489;-86
2023/10/20 06:18:36;;;;;;;30.70;26.50;;;11.10;99.90;;;10.62;100.00;94826.34;4991400;28;20454;-85
2023/10/20 06:21:04;;;;;;;36.50;26.00;;;11.10;99.90;;;10.68;100.00;94821.69;5002594;28;20464;-82
2023/10/20 06:23:32;;;;;;;33.10;26.63;;;11.10;99.90;;;10.65;100.00;94796.06;5005544;28;20456;-80
2023/10/20 06:26:00;;;;;;;30.73;25.77;;;11.10;99.90;;;10.57;100.00;94772.44;4992222;28;20804;-82
2023/10/20 06:28:27;;;;;;;31.17;25.67;;;11.10;99.90;;;10.63;100.00;94772.06;5008643;28;20495;-83
2023/10/20 06:30:57;;;;;;;34.37;25.93;;;11.10;99.90;;;10.60;100.00;94761.84;5004964;28;21226;-73
2023/10/20 06:33:32;;;;;;;32.70;26.40;;;11.10;99.90;;;10.72;100.00;94750.59;4996343;28;20458;-78
2023/10/20 06:36:05;;;;;;;31.50;26.60;;;11.10;99.90;;;10.81;100.00;94755.31;5000886;28;20475;-77
2023/10/20 06:38:36;;;;;;;32.93;27.07;;;11.20;99.90;;;10.73;100.00;94756.78;4985595;28;21037;-76
2023/10/20 06:41:04;;;;;;;30.03;25.73;;;11.20;99.90;;;10.69;100.00;94764.69;4982835;28;20485;-77
2023/10/20 06:43:31;;;;;;;36.37;28.20;;;11.20;99.90;;;10.73;100.00;94760.28;5000747;28;20915;-75
2023/10/20 06:46:00;;;;;;;33.47;28.40;;;11.20;99.90;;;10.56;100.00;94741.16;5001799;28;20460;-75
2023/10/20 06:48:29;;;;;;;33.90;27.50;;;11.10;99.90;;;10.48;100.00;94716.44;5006397;28;20464;-79
2023/10/20 06:50:58;;;;;;;32.63;28.20;;;11.10;99.90;;;10.44;100.00;94709.22;5000155;28;20464;-75
2023/10/20 06:53:26;;;;;;;34.33;27.03;;;11.00;99.90;;;10.42;100.00;94698.72;5002886;28;20548;-77
2023/10/20 06:55:53;;;;;;;35.03;27.43;;;11.00;99.90;;;10.38;100.00;94684.16;5001459;28;20477;-75
2023/10/20 06:58:20;;;;;;;34.03;28.10;;;11.00;99.90;;;10.34;100.00;94669.69;4998675;28;20571;-75
2023/10/20 07:00:48;;;;;;;31.07;26.60;;;10.90;99.90;;;10.39;100.00;94649.91;5003393;28;20961;-75
2023/10/20 07:03:15;;;;;;;32.63;28.53;;;10.90;99.90;;;10.41;100.00;94629.66;5000697;28;20447;-77
2023/10/20 07:05:47;;;;;;;31.40;26.53;;;11.00;99.90;;;10.43;100.00;94619.38;5001920;28;20817;-75
2023/10/20 07:08:14;;;;;;;34.13;29.03;;;11.00;99.90;;;10.36;100.00;94616.22;5006064;28;20448;-76
2023/10/20 07:10:42;;;;;;;33.20;28.00;;;11.00;99.90;;;10.31;100.00;94614.44;5002997;28;20460;-76
2023/10/20 07:13:11;;;;;;;33.83;28.07;;;10.90;99.90;;;10.34;100.00;94602.22;5004709;28;20471;-75
2023/10/20 07:15:38;;;;;;;36.13;28.73;;;10.90;99.90;;;10.31;100.00;94586.63;5000394;28;20482;-76
2023/10/20 07:18:06;;;;;;;32.93;28.47;;;10.90;99.90;;;10.35;100.00;94560.66;5005303;28;20550;-77
2023/10/20 07:20:38;;;;;;;38.20;29.37;;;11.00;99.90;;;10.38;100.00;94587.03;4994443;28;20522;-77
2023/10/20 07:23:07;;;;;;;41.37;30.10;;;10.90;99.90;;;10.40;100.00;94584.84;4998890;28;20453;-78
2023/10/20 07:25:35;;;;;;;33.33;27.87;;;11.00;99.90;;;10.25;100.00;94552.75;4986169;28;20508;-76
2023/10/20 07:28:03;;;;;;;39.80;29.00;;;11.00;99.90;;;10.60;100.00;94583.66;5013459;28;20462;-84
2023/10/20 07:30:30;;;;;;;36.67;29.87;;;11.00;99.90;;;10.47;100.00;94574.47;5001756;28;20452;-75
2023/10/20 07:32:57;;;;;;;36.43;29.63;;;11.00;99.90;;;10.41;100.00;94569.47;4993283;28;20455;-75
2023/10/20 07:35:25;;;;;;;35.83;30.43;;;11.00;99.90;;;10.37;100.00;94563.84;4996471;28;20503;-75
2023/10/20 07:37:52;;;;;;;39.03;29.23;;;11.00;99.90;;;10.44;100.00;94564.28;4991636;28;20452;-75
2023/10/20 07:40:26;;;;;;;35.07;31.10;;;11.00;99.90;;;10.48;100.00;94576.09;4998314;28;20471;-76
2023/10/20 07:42:53;;;;;;;37.80;30.50;;;11.00;99.90;;;10.66;100.00;94576.28;4997402;28;20476;-75
2023/10/20 07:45:20;;;;;;;36.73;30.10;;;11.20;99.90;;;10.58;100.00;94571.59;4996040;28;20468;-76
2023/10/20 07:47:48;;;;;;;38.00;29.60;;;11.20;99.90;;;10.58;100.00;94563.50;5000205;28;20458;-76
2023/10/20 07:50:15;;;;;;;37.10;30.37;;;11.20;99.90;;;10.79;100.00;94568.47;5003798;28;20461;-76
2023/10/20 07:52:42;;;;;;;36.70;28.77;;;11.20;99.90;;;10.83;100.00;94558.66;4995275;28;20998;-75
2023/10/20 07:55:09;;;;;;;36.57;30.53;;;11.30;99.90;;;11.00;100.00;94555.34;5002330;28;20784;-75
2023/10/20 07:57:38;;;;;;;39.40;31.30;;;11.50;99.90;;;10.90;100.00;94540.16;4985407;28;20454;-75
2023/10/20 08:00:13;;;;;;;30.97;27.47;;;11.50;98.20;;;11.02;100.00;94539.63;5005351;28;20459;-75
2023/10/20 08:02:41;;;;;;;31.07;27.67;;;11.50;98.60;;;11.03;100.00;94536.66;5003920;28;20510;-75
2023/10/20 08:05:10;;;;;;;31.13;26.27;;;11.60;97.20;;;11.13;100.00;94543.72;4984730;28;20458;-75
2023/10/20 08:07:40;;;;;;;33.03;26.67;;;11.70;97.40;;;11.17;100.00;94541.22;5005766;28;20463;-75
2023/10/20 08:10:09;;;;;;;29.90;25.50;;;11.70;96.70;;;11.32;100.00;94521.16;5001248;28;20451;-76
2023/10/20 08:12:38;;;;;;;31.80;24.37;;;11.80;96.60;;;11.16;100.00;94518.78;4989029;28;20454;-77
2023/10/20 08:15:08;;;;;;;27.90;24.23;;;11.80;96.50;;;11.24;100.00;94525.38;5005877;28;20537;-81
2023/10/20 08:17:37;;;;;;;28.20;24.40;;;11.80;96.00;;;11.29;100.00;94538.75;5006222;28;20480;-79
2023/10/20 08:20:09;;;;;;;30.90;23.70;;;11.80;95.30;;;11.27;100.00;94534.78;5006160;28;20460;-77
2023/10/20 08:22:36;;;;;;;27.00;23.33;;;11.80;95.50;;;11.26;100.00;94522.38;4995440;28;20457;-79
2023/10/20 08:25:04;;;;;;;26.50;23.70;;;11.80;95.40;;;11.36;99.90;94537.56;4991947;28;20460;-81
2023/10/20 08:27:32;;;;;;;25.03;22.17;;;11.90;95.00;;;11.47;99.73;94542.41;5003124;28;20463;-80
2023/10/20 08:30:00;;;;;;;26.03;22.60;;;12.00;95.00;;;11.48;97.96;94540.53;5006702;28;20518;-80
2023/10/20 08:32:28;;;;;;;26.73;22.83;;;12.10;94.00;;;11.56;98.16;94539.78;5001957;28;20455;-80
2023/10/20 08:34:55;;;;;;;26.07;23.33;;;12.10;94.10;;;11.43;98.05;94527.09;5004193;28;20478;-80
2023/10/20 08:37:23;;;;;;;23.10;20.40;;;12.10;93.90;;;11.69;97.25;94532.72;5004748;28;20470;-75
2023/10/20 08:39:50;;;;;;;24.23;21.03;;;12.20;93.80;;;11.73;97.13;94530.19;5003050;28;20470;-78
2023/10/20 08:42:18;;;;;;;23.07;20.60;;;12.20;93.50;;;11.64;95.94;94524.72;4998272;28;20451;-78
2023/10/20 08:44:46;;;;;;;23.47;20.40;;;12.20;92.90;;;11.53;97.81;94526.88;4989764;28;20451;-80
2023/10/20 08:47:17;;;;;;;23.63;20.70;;;12.10;93.60;;;11.55;97.06;94529.28;5001569;28;20456;-78
2023/10/20 08:49:45;;;;;;;24.23;20.40;;;12.10;93.40;;;11.69;97.14;94531.91;4999256;28;20505;-80
2023/10/20 08:52:13;;;;;;;25.43;22.83;;;12.20;94.00;;;11.69;96.54;94515.69;4999323;28;20460;-78
2023/10/20 08:54:41;;;;;;;24.73;22.13;;;12.20;93.30;;;11.70;96.05;94520.00;5005525;28;20980;-79
2023/10/20 08:57:09;;;;;;;23.57;21.00;;;12.30;93.00;;;11.88;95.17;94515.50;4988308;28;20447;-79
2023/10/20 08:59:36;;;;;;;22.53;19.90;;;12.40;92.90;;;12.13;93.27;94518.66;5002822;28;20465;-79
2023/10/20 09:02:04;;;;;;;24.20;21.30;;;12.50;92.40;;;12.26;93.53;94514.28;4986287;28;20562;-77
2023/10/20 09:04:32;;;;;;;22.17;19.90;;;12.70;92.30;;;11.81;92.83;94471.84;4983762;28;20784;-78
2023/10/20 09:07:03;;;;;;;21.90;19.37;;;12.70;91.70;;;12.15;92.49;94513.75;4991824;28;20456;-79
2023/10/20 09:09:30;;;;;;;20.60;18.40;;;12.70;91.70;;;11.63;92.56;94452.81;5004516;28;20454;-78
2023/10/20 09:11:57;;;;;;;22.50;20.20;;;12.60;91.30;;;11.84;94.30;94514.53;5004276;28;21030;-78
2023/10/20 09:14:27;;;;;;;22.63;19.87;;;12.40;91.80;;;12.00;94.34;94507.59;5011200;28;20486;-77
2023/10/20 09:16:57;;;;;;;22.90;20.57;;;12.50;92.40;;;11.94;93.26;94511.53;5006171;28;20480;-77
2023/10/20 09:19:24;;;;;;;20.77;18.70;;;12.50;91.80;;;12.27;93.04;94511.25;5007819;28;20490;-76
2023/10/20 09:21:57;;;;;;;21.17;18.93;;;12.60;92.20;;;12.40;92.11;94514.16;4993617;28;20803;-78
2023/10/20 09:24:31;;;;;;;21.23;19.10;;;12.80;91.80;;;12.37;90.72;94521.03;5007843;28;20459;-78
2023/10/20 09:26:59;;;;;;;22.43;20.03;;;12.90;91.20;;;12.29;91.64;94513.66;4992251;28;20517;-78
2023/10/20 09:29:29;;;;;;;23.53;19.70;;;12.90;91.30;;;12.43;91.34;94508.94;5013510;28;20468;-77
2023/10/20 09:31:59;;;;;;;20.63;18.63;;;12.80;91.40;;;12.52;91.48;94519.00;4983691;28;21252;-76
2023/10/20 09:34:26;;;;;;;21.30;19.20;;;12.90;91.50;;;12.23;91.41;94506.78;5005890;28;20534;-78
2023/10/20 09:36:56;;;;;;;20.50;18.40;;;12.90;91.20;;;12.39;91.46;94505.25;4989753;28;20463;-78
2023/10/20 09:39:35;;;;;;;20.80;18.60;;;12.80;91.30;;;12.49;91.04;94511.47;4988333;28;20468;-77
2023/10/20 09:42:06;;;;;;;20.00;17.97;;;12.90;91.20;;;12.66;89.63;94500.72;5001187;28;20461;-77
2023/10/20 09:44:40;;;;;;;20.10;17.97;;;13.10;91.00;;;12.64;88.89;94519.16;5004293;28;20459;-77
2023/10/20 09:47:16;;;;;;;20.47;18.47;;;13.20;90.60;;;12.77;89.67;94497.69;4997892;28;21021;-78
2023/10/20 09:49:44;;;;;;;18.23;16.43;;;13.20;90.90;;;13.15;88.55;94500.63;5006732;28;20456;-78
2023/10/20 09:52:13;;;;;;;18.80;16.93;;;13.40;91.00;;;13.40;87.64;94505.56;4982475;28;20465;-81
2023/10/20 09:54:41;;;;;;;18.30;16.43;;;13.60;90.80;;;13.72;85.13;94489.94;5003590;28;20949;-79
2023/10/20 09:57:08;;;;;;;18.00;16.30;;;13.90;90.30;;;13.61;84.70;94489.47;5002721;28;20553;-78
2023/10/20 09:59:39;;;;;;;19.40;16.37;;;14.00;89.60;;;13.45;83.88;94464.78;4990618;28;21039;-78
2023/10/20 10:02:07;;;;;;;16.77;15.10;;;14.00;89.10;;;13.50;83.86;94485.50;4999011;28;20463;-76
2023/10/20 10:04:39;;;;;;;17.63;15.87;;;14.00;88.50;;;13.91;82.91;94486.09;5006326;28;20875;-76
2023/10/20 10:07:07;;;;;;;17.40;15.63;;;14.20;89.30;;;14.33;81.51;94478.13;5003692;28;20930;-77
2023/10/20 10:09:43;;;;;;;17.97;16.03;;;14.50;88.70;;;14.29;79.75;94477.16;5000230;28;20470;-79
2023/10/20 10:12:14;;;;;;;16.87;15.17;;;14.70;87.40;;;14.25;80.75;94487.09;5004050;28;20480;-77
2023/10/20 10:14:41;;;;;;;16.37;14.67;;;14.70;87.40;;;14.16;82.25;94479.75;4998872;28;20981;-78
2023/10/20 10:17:11;;;;;;;16.50;14.63;;;14.70;87.80;;;14.53;80.94;94486.66;5003938;28;20480;-78
2023/10/20 10:19:50;;;;;;;16.23;14.73;;;14.70;87.90;;;14.30;81.48;94497.75;4988064;28;20545;-77
2023/10/20 10:22:22;;;;;;;15.87;14.37;;;14.60;87.50;;;14.50;81.07;94496.22;5005835;28;20453;-77
2023/10/20 10:24:54;;;;;;;15.83;14.27;;;14.70;87.70;;;14.18;81.81;94495.72;5004633;28;20487;-76